createdAt,value
2024-02-29T00:00:59.891Z,46.71
2024-02-29T00:01:59.953Z,46.67
2024-02-29T00:02:59.900Z,46.68
2024-02-29T00:03:59.988Z,46.70
2024-02-29T00:05:00.006Z,46.65
2024-02-29T00:06:00.080Z,46.66
2024-02-29T00:07:00.177Z,46.66
2024-02-29T00:08:00.165Z,46.67
2024-02-29T00:09:00.235Z,46.70
2024-02-29T00:10:00.332Z,46.67
2024-02-29T00:11:00.364Z,46.70
2024-02-29T00:12:00.429Z,46.66
2024-02-29T00:13:00.477Z,46.67
2024-02-29T00:14:00.488Z,46.69
2024-02-29T00:15:00.543Z,46.68
2024-02-29T00:16:00.574Z,46.68
2024-02-29T00:17:00.685Z,46.68
2024-02-29T00:18:00.738Z,46.69
2024-02-29T00:19:00.747Z,46.63
2024-02-29T00:20:00.800Z,46.66
2024-02-29T00:21:00.828Z,46.68
2024-02-29T00:22:00.891Z,46.65
2024-02-29T00:23:00.939Z,46.65
2024-02-29T00:24:00.991Z,46.63
2024-02-29T00:25:01.127Z,46.64
2024-02-29T00:26:01.069Z,46.65
2024-02-29T00:27:01.157Z,46.64
2024-02-29T00:28:01.259Z,46.62
2024-02-29T00:29:01.242Z,46.63
2024-02-29T00:30:01.284Z,46.64
2024-02-29T00:31:01.378Z,46.62
2024-02-29T00:32:01.399Z,46.61
2024-02-29T00:33:01.477Z,46.62
2024-02-29T00:34:01.512Z,46.62
2024-02-29T00:35:01.538Z,46.59
2024-02-29T00:36:09.233Z,46.61
2024-02-29T00:37:02.622Z,46.63
2024-02-29T00:38:01.601Z,46.60
2024-02-29T00:39:06.426Z,46.63
2024-02-29T00:40:02.643Z,46.59
2024-02-29T00:41:01.609Z,46.60
2024-02-29T00:42:01.601Z,46.60
2024-02-29T00:43:01.662Z,46.61
2024-02-29T00:44:01.639Z,46.60
2024-02-29T00:45:01.638Z,46.58
2024-02-29T00:46:01.674Z,46.60
2024-02-29T00:47:01.625Z,46.58
2024-02-29T00:48:01.663Z,46.54
2024-02-29T00:49:01.684Z,46.53
2024-02-29T00:50:01.641Z,46.56
2024-02-29T00:51:01.702Z,46.56
2024-02-29T00:52:01.732Z,46.54
2024-02-29T00:53:01.791Z,46.54
2024-02-29T00:54:01.938Z,46.54
2024-02-29T00:55:01.936Z,46.54
2024-02-29T00:56:01.960Z,46.56
2024-02-29T00:57:02.091Z,46.54
2024-02-29T00:58:02.123Z,46.53
2024-02-29T00:59:02.144Z,46.53
2024-02-29T01:00:02.177Z,46.54
2024-02-29T01:01:02.373Z,46.54
2024-02-29T01:02:02.923Z,46.51
2024-02-29T01:03:02.378Z,46.54
2024-02-29T01:04:02.503Z,46.52
2024-02-29T01:05:02.477Z,46.55
2024-02-29T01:06:02.558Z,46.56
2024-02-29T01:07:02.709Z,46.52
2024-02-29T01:08:02.674Z,46.50
2024-02-29T01:09:02.719Z,46.51
2024-02-29T01:10:02.864Z,46.49
2024-02-29T01:11:02.887Z,46.49
2024-02-29T01:12:02.922Z,46.49
2024-02-29T01:13:03.007Z,46.50
2024-02-29T01:14:13.097Z,46.50
2024-02-29T01:15:03.031Z,46.53
2024-02-29T01:16:03.202Z,46.52
2024-02-29T01:17:03.031Z,46.52
2024-02-29T01:18:03.064Z,46.51
2024-02-29T01:19:03.087Z,46.50
2024-02-29T01:20:03.047Z,46.48
2024-02-29T01:21:03.040Z,46.52
2024-02-29T01:22:03.071Z,46.46
2024-02-29T01:23:03.051Z,46.47
2024-02-29T01:24:03.064Z,46.47
2024-02-29T01:25:03.127Z,46.47
2024-02-29T01:26:03.059Z,46.46
2024-02-29T01:27:03.063Z,46.48
2024-02-29T01:28:03.140Z,46.47
2024-02-29T01:29:03.062Z,46.48
2024-02-29T01:30:03.074Z,46.49
2024-02-29T01:31:03.237Z,46.50
2024-02-29T01:32:12.087Z,46.49
2024-02-29T01:33:04.101Z,46.48
2024-02-29T01:34:03.130Z,46.51
2024-02-29T01:35:03.074Z,46.50
2024-02-29T01:36:03.059Z,46.51
2024-02-29T01:37:03.103Z,46.45
2024-02-29T01:38:03.081Z,46.46
2024-02-29T01:39:03.093Z,46.48
2024-02-29T01:40:03.206Z,46.48
2024-02-29T01:41:03.069Z,46.46
2024-02-29T01:42:03.085Z,46.45
2024-02-29T01:43:03.190Z,46.45
2024-02-29T01:44:03.231Z,46.44
2024-02-29T01:45:03.284Z,46.43
2024-02-29T01:46:03.360Z,46.45
2024-02-29T01:47:03.402Z,46.44
2024-02-29T01:48:03.515Z,46.45
2024-02-29T01:49:03.554Z,46.45
2024-02-29T01:50:03.818Z,46.48
2024-02-29T01:51:03.672Z,46.42
2024-02-29T01:52:03.781Z,46.44
2024-02-29T01:53:03.811Z,46.43
2024-02-29T01:54:03.886Z,46.41
2024-02-29T01:55:04.099Z,46.43
2024-02-29T01:56:04.025Z,46.41
2024-02-29T01:57:04.088Z,46.39
2024-02-29T01:58:04.260Z,46.41
2024-02-29T01:59:04.272Z,46.39
2024-02-29T02:00:04.342Z,46.41
2024-02-29T02:01:04.433Z,46.41
2024-02-29T02:02:04.428Z,46.39
2024-02-29T02:03:04.472Z,46.41
2024-02-29T02:04:06.394Z,46.40
2024-02-29T02:05:04.617Z,46.38
2024-02-29T02:06:04.664Z,46.41
2024-02-29T02:07:04.759Z,46.37
2024-02-29T02:08:04.815Z,46.35
2024-02-29T02:09:04.888Z,46.40
2024-02-29T02:10:04.995Z,46.38
2024-02-29T02:11:05.042Z,46.36
2024-02-29T02:12:05.073Z,46.36
2024-02-29T02:13:05.216Z,46.36
2024-02-29T02:14:05.221Z,46.37
2024-02-29T02:15:05.265Z,46.40
2024-02-29T02:16:05.390Z,46.36
2024-02-29T02:17:05.413Z,46.39
2024-02-29T02:18:05.523Z,46.37
2024-02-29T02:19:05.615Z,46.35
2024-02-29T02:20:05.639Z,46.34
2024-02-29T02:21:05.695Z,46.33
2024-02-29T02:22:05.984Z,46.33
2024-02-29T02:23:05.828Z,46.36
2024-02-29T02:24:06.359Z,46.35
2024-02-29T02:25:06.038Z,46.33
2024-02-29T02:26:06.058Z,46.36
2024-02-29T02:27:06.126Z,46.37
2024-02-29T02:28:06.289Z,46.36
2024-02-29T02:29:06.404Z,46.37
2024-02-29T02:30:06.346Z,46.37
2024-02-29T02:31:06.430Z,46.35
2024-02-29T02:32:06.471Z,46.34
2024-02-29T02:33:06.608Z,46.34
2024-02-29T02:34:12.304Z,46.33
2024-02-29T02:35:06.608Z,46.36
2024-02-29T02:36:06.639Z,46.35
2024-02-29T02:37:06.744Z,46.35
2024-02-29T02:38:06.623Z,46.32
2024-02-29T02:39:27.630Z,46.32
2024-02-29T02:40:06.754Z,46.44
2024-02-29T02:41:06.620Z,46.38
2024-02-29T02:42:06.638Z,46.33
2024-02-29T02:43:06.684Z,46.32
2024-02-29T02:44:28.866Z,46.34
2024-02-29T02:45:06.624Z,46.46
2024-02-29T02:46:06.733Z,46.39
2024-02-29T02:47:06.643Z,46.36
2024-02-29T02:48:06.702Z,46.37
2024-02-29T02:49:06.802Z,46.32
2024-02-29T02:50:06.746Z,46.32
2024-02-29T02:51:06.659Z,46.33
2024-02-29T02:52:06.722Z,46.30
2024-02-29T02:53:06.654Z,46.30
2024-02-29T02:54:06.666Z,46.32
2024-02-29T02:55:06.808Z,46.30
2024-02-29T02:56:06.666Z,46.30
2024-02-29T02:57:06.669Z,46.26
2024-02-29T02:58:06.722Z,46.25
2024-02-29T02:59:06.679Z,46.27
2024-02-29T03:00:06.688Z,46.28
2024-02-29T03:01:06.723Z,46.32
2024-02-29T03:02:06.746Z,46.37
2024-02-29T03:03:06.683Z,46.42
2024-02-29T03:04:06.781Z,46.35
2024-02-29T03:05:06.769Z,46.32
2024-02-29T03:06:06.835Z,46.29
2024-02-29T03:07:06.955Z,46.25
2024-02-29T03:08:07.039Z,46.24
2024-02-29T03:09:07.013Z,46.26
2024-02-29T03:10:07.137Z,46.20
2024-02-29T03:11:07.236Z,46.17
2024-02-29T03:12:07.222Z,46.12
2024-02-29T03:13:07.362Z,46.08
2024-02-29T03:14:12.182Z,46.04
2024-02-29T03:15:07.300Z,46.00
2024-02-29T03:16:07.370Z,45.91
2024-02-29T03:17:07.305Z,45.87
2024-02-29T03:18:07.386Z,45.81
2024-02-29T03:19:07.351Z,45.79
2024-02-29T03:20:07.367Z,45.71
2024-02-29T03:21:07.401Z,45.68
2024-02-29T03:22:07.465Z,45.61
2024-02-29T03:23:07.382Z,45.55
2024-02-29T03:24:07.336Z,45.50
2024-02-29T03:25:07.366Z,45.45
2024-02-29T03:26:07.346Z,45.44
2024-02-29T03:27:07.348Z,45.35
2024-02-29T03:28:07.472Z,45.30
2024-02-29T03:29:07.321Z,45.25
2024-02-29T03:30:07.348Z,45.20
2024-02-29T03:31:07.381Z,45.18
2024-02-29T03:32:07.346Z,45.12
2024-02-29T03:33:07.384Z,45.09
2024-02-29T03:34:07.441Z,45.04
2024-02-29T03:35:07.365Z,44.98
2024-02-29T03:36:07.395Z,44.92
2024-02-29T03:37:07.445Z,44.88
2024-02-29T03:38:07.406Z,44.81
2024-02-29T03:39:07.397Z,44.77
2024-02-29T03:40:07.496Z,44.75
2024-02-29T03:41:07.412Z,44.69
2024-02-29T03:42:07.415Z,44.66
2024-02-29T03:43:07.478Z,44.62
2024-02-29T03:44:07.466Z,44.60
2024-02-29T03:45:07.435Z,44.56
2024-02-29T03:46:07.520Z,44.53
2024-02-29T03:47:07.439Z,44.51
2024-02-29T03:48:07.533Z,44.46
2024-02-29T03:49:07.521Z,44.41
2024-02-29T03:50:07.528Z,44.39
2024-02-29T03:51:07.543Z,44.37
2024-02-29T03:52:07.581Z,44.35
2024-02-29T03:53:07.614Z,44.33
2024-02-29T03:54:07.636Z,44.30
2024-02-29T03:55:07.732Z,44.27
2024-02-29T03:56:07.757Z,44.24
2024-02-29T03:57:07.780Z,44.23
2024-02-29T03:58:07.961Z,44.21
2024-02-29T03:59:07.930Z,44.18
2024-02-29T04:00:08.099Z,44.18
2024-02-29T04:01:08.313Z,44.17
2024-02-29T04:02:08.114Z,44.13
2024-02-29T04:03:08.195Z,44.09
2024-02-29T04:04:08.318Z,44.08
2024-02-29T04:05:08.332Z,44.08
2024-02-29T04:06:08.414Z,44.07
2024-02-29T04:07:08.662Z,44.06
2024-02-29T04:08:08.547Z,44.05
2024-02-29T04:09:13.682Z,44.00
2024-02-29T04:10:08.670Z,44.01
2024-02-29T04:11:08.692Z,43.98
2024-02-29T04:12:08.637Z,43.99
2024-02-29T04:13:08.752Z,43.96
2024-02-29T04:14:08.641Z,43.93
2024-02-29T04:15:08.633Z,43.89
2024-02-29T04:16:08.714Z,43.90
2024-02-29T04:17:08.803Z,43.87
2024-02-29T04:18:08.892Z,43.84
2024-02-29T04:19:08.996Z,43.85
2024-02-29T04:20:08.978Z,43.85
2024-02-29T04:21:09.039Z,43.85
2024-02-29T04:22:09.134Z,43.81
2024-02-29T04:23:09.167Z,43.82
2024-02-29T04:24:09.225Z,43.78
2024-02-29T04:25:09.314Z,43.79
2024-02-29T04:26:09.344Z,43.78
2024-02-29T04:27:09.434Z,43.76
2024-02-29T04:28:09.532Z,43.74
2024-02-29T04:29:09.542Z,43.71
2024-02-29T04:30:09.609Z,43.69
2024-02-29T04:31:09.734Z,43.69
2024-02-29T04:32:09.720Z,43.68
2024-02-29T04:33:09.786Z,43.68
2024-02-29T04:34:09.888Z,43.66
2024-02-29T04:35:09.968Z,43.67
2024-02-29T04:36:09.956Z,43.66
2024-02-29T04:37:10.112Z,43.64
2024-02-29T04:38:10.026Z,43.65
2024-02-29T04:39:10.089Z,43.61
2024-02-29T04:40:11.517Z,43.58
2024-02-29T04:41:10.206Z,43.59
2024-02-29T04:42:10.243Z,43.61
2024-02-29T04:43:10.338Z,43.56
2024-02-29T04:44:10.350Z,43.61
2024-02-29T04:45:10.435Z,43.59
2024-02-29T04:46:10.533Z,43.55
2024-02-29T04:47:17.856Z,43.61
2024-02-29T04:48:17.873Z,43.57
2024-02-29T04:49:17.910Z,43.56
2024-02-29T04:50:17.849Z,43.53
2024-02-29T04:51:17.859Z,43.51
2024-02-29T04:52:17.866Z,43.48
2024-02-29T04:53:17.864Z,43.49
2024-02-29T04:54:38.888Z,43.48
2024-02-29T04:55:17.917Z,43.57
2024-02-29T04:56:17.873Z,43.51
2024-02-29T04:57:17.868Z,43.48
2024-02-29T04:58:17.936Z,43.45
2024-02-29T04:59:21.700Z,43.42
2024-02-29T05:00:17.929Z,43.40
2024-02-29T05:01:18.003Z,43.39
2024-02-29T05:02:17.987Z,43.37
2024-02-29T05:03:18.468Z,43.35
2024-02-29T05:04:17.908Z,43.35
2024-02-29T05:05:21.728Z,43.35
2024-02-29T05:06:17.887Z,43.31
2024-02-29T05:07:17.967Z,43.30
2024-02-29T05:08:17.901Z,43.29
2024-02-29T05:09:17.885Z,43.27
2024-02-29T05:10:18.003Z,43.26
2024-02-29T05:11:17.918Z,43.22
2024-02-29T05:12:17.894Z,43.25
2024-02-29T05:13:17.908Z,43.20
2024-02-29T05:14:17.882Z,43.18
2024-02-29T05:15:17.905Z,43.22
2024-02-29T05:16:17.939Z,43.16
2024-02-29T05:17:17.902Z,43.13
2024-02-29T05:18:17.968Z,43.13
2024-02-29T05:19:17.985Z,43.13
2024-02-29T05:20:17.936Z,43.10
2024-02-29T05:21:17.901Z,43.11
2024-02-29T05:22:17.932Z,43.11
2024-02-29T05:23:17.906Z,43.11
2024-02-29T05:24:17.909Z,43.08
2024-02-29T05:25:18.074Z,43.07
2024-02-29T05:26:17.908Z,43.07
2024-02-29T05:27:17.903Z,43.03
2024-02-29T05:28:17.975Z,43.05
2024-02-29T05:29:17.955Z,43.03
2024-02-29T05:30:17.921Z,43.04
2024-02-29T05:31:17.973Z,43.03
2024-02-29T05:32:19.070Z,43.01
2024-02-29T05:33:18.042Z,43.03
2024-02-29T05:34:18.088Z,43.03
2024-02-29T05:35:17.949Z,43.02
2024-02-29T05:36:17.950Z,43.03
2024-02-29T05:37:18.025Z,43.04
2024-02-29T05:38:17.938Z,43.01
2024-02-29T05:39:17.948Z,43.02
2024-02-29T05:40:18.019Z,43.00
2024-02-29T05:41:17.965Z,43.04
2024-02-29T05:42:17.943Z,43.01
2024-02-29T05:43:17.977Z,43.04
2024-02-29T05:44:17.942Z,43.06
2024-02-29T05:45:17.958Z,43.05
2024-02-29T05:46:18.035Z,43.06
2024-02-29T05:47:17.953Z,43.01
2024-02-29T05:48:17.959Z,43.03
2024-02-29T05:49:18.026Z,43.05
2024-02-29T05:50:17.969Z,43.05
2024-02-29T05:51:17.952Z,43.05
2024-02-29T05:52:17.994Z,43.03
2024-02-29T05:53:17.961Z,43.05
2024-02-29T05:54:17.987Z,43.04
2024-02-29T05:55:18.165Z,43.05
2024-02-29T05:56:18.081Z,43.04
2024-02-29T05:57:18.112Z,43.07
2024-02-29T05:58:18.167Z,43.07
2024-02-29T05:59:18.146Z,43.06
2024-02-29T06:00:18.161Z,43.06
2024-02-29T06:01:18.257Z,43.07
2024-02-29T06:02:18.257Z,43.04
2024-02-29T06:03:18.277Z,43.04
2024-02-29T06:04:18.452Z,43.05
2024-02-29T06:05:18.348Z,43.02
2024-02-29T06:06:18.368Z,43.02
2024-02-29T06:07:18.443Z,43.01
2024-02-29T06:08:18.445Z,43.01
2024-02-29T06:09:18.478Z,43.02
2024-02-29T06:10:18.579Z,43.02
2024-02-29T06:11:18.561Z,43.03
2024-02-29T06:12:18.563Z,43.01
2024-02-29T06:13:18.687Z,43.00
2024-02-29T06:14:18.644Z,43.00
2024-02-29T06:15:18.637Z,42.97
2024-02-29T06:16:18.684Z,42.96
2024-02-29T06:17:18.712Z,42.98
2024-02-29T06:18:18.751Z,42.95
2024-02-29T06:19:18.873Z,42.93
2024-02-29T06:20:18.777Z,42.94
2024-02-29T06:21:18.777Z,42.93
2024-02-29T06:22:18.839Z,42.93
2024-02-29T06:23:18.816Z,42.92
2024-02-29T06:24:18.822Z,42.91
2024-02-29T06:25:19.281Z,42.88
2024-02-29T06:26:18.901Z,42.89
2024-02-29T06:27:18.886Z,42.86
2024-02-29T06:28:22.925Z,42.87
2024-02-29T06:29:20.005Z,42.88
2024-02-29T06:30:18.930Z,42.86
2024-02-29T06:31:19.106Z,42.85
2024-02-29T06:32:18.934Z,42.85
2024-02-29T06:33:18.954Z,41.59
2024-02-29T06:34:18.985Z,40.39
2024-02-29T06:35:18.952Z,40.09
2024-02-29T06:36:18.924Z,39.80
2024-02-29T06:37:18.970Z,39.77
2024-02-29T06:38:18.921Z,39.91
2024-02-29T06:39:18.925Z,39.97
2024-02-29T06:40:19.022Z,40.12
2024-02-29T06:41:18.944Z,40.32
2024-02-29T06:42:18.948Z,40.51
2024-02-29T06:43:19.218Z,40.76
2024-02-29T06:44:18.946Z,40.95
2024-02-29T06:45:18.982Z,41.09
2024-02-29T06:46:19.065Z,41.14
2024-02-29T06:47:19.004Z,41.23
2024-02-29T06:48:19.077Z,41.41
2024-02-29T06:49:19.128Z,41.72
2024-02-29T06:50:19.164Z,42.04
2024-02-29T06:51:19.168Z,42.38
2024-02-29T06:52:19.353Z,42.81
2024-02-29T06:53:19.222Z,43.25
2024-02-29T06:54:19.297Z,43.61
2024-02-29T06:55:19.454Z,43.93
2024-02-29T06:56:19.414Z,44.24
2024-02-29T06:57:19.446Z,44.46
2024-02-29T06:58:19.566Z,44.60
2024-02-29T06:59:19.486Z,44.86
2024-02-29T07:00:19.513Z,45.12
2024-02-29T07:01:19.552Z,45.41
2024-02-29T07:02:19.526Z,45.70
2024-02-29T07:03:19.535Z,45.66
2024-02-29T07:04:19.744Z,45.42
2024-02-29T07:05:19.703Z,45.08
2024-02-29T07:06:19.670Z,45.41
2024-02-29T07:07:19.720Z,45.23
2024-02-29T07:08:19.744Z,44.76
2024-02-29T07:09:19.773Z,44.53
2024-02-29T07:10:19.899Z,44.40
2024-02-29T07:11:19.830Z,44.40
2024-02-29T07:12:19.924Z,44.35
2024-02-29T07:13:20.014Z,44.27
2024-02-29T07:14:19.983Z,44.14
2024-02-29T07:15:20.022Z,44.09
2024-02-29T07:16:20.047Z,44.01
2024-02-29T07:17:20.037Z,44.06
2024-02-29T07:18:20.066Z,44.10
2024-02-29T07:19:20.101Z,44.03
2024-02-29T07:20:20.130Z,43.93
2024-02-29T07:21:20.177Z,43.91
2024-02-29T07:22:20.322Z,43.91
2024-02-29T07:23:20.338Z,44.68
2024-02-29T07:24:20.383Z,44.90
2024-02-29T07:25:20.487Z,44.51
2024-02-29T07:26:20.496Z,44.41
2024-02-29T07:27:20.527Z,44.38
2024-02-29T07:28:20.639Z,44.40
2024-02-29T07:29:20.590Z,44.44
2024-02-29T07:30:20.700Z,44.51
2024-02-29T07:31:20.695Z,44.57
2024-02-29T07:32:20.703Z,44.57
2024-02-29T07:33:20.791Z,44.61
2024-02-29T07:34:20.763Z,44.66
2024-02-29T07:35:20.703Z,44.71
2024-02-29T07:36:20.745Z,44.75
2024-02-29T07:37:20.915Z,44.88
2024-02-29T07:38:20.753Z,44.86
2024-02-29T07:39:20.770Z,44.85
2024-02-29T07:40:20.926Z,45.00
2024-02-29T07:41:20.768Z,45.03
2024-02-29T07:42:20.797Z,45.03
2024-02-29T07:43:20.945Z,45.11
2024-02-29T07:44:20.866Z,45.11
2024-02-29T07:45:21.399Z,45.15
2024-02-29T07:46:21.022Z,45.25
2024-02-29T07:47:21.070Z,45.34
2024-02-29T07:48:21.161Z,45.38
2024-02-29T07:49:21.273Z,45.40
2024-02-29T07:50:21.272Z,45.43
2024-02-29T07:51:21.340Z,45.42
2024-02-29T07:52:21.552Z,45.52
2024-02-29T07:53:21.513Z,45.56
2024-02-29T07:54:21.601Z,45.66
2024-02-29T07:55:21.706Z,45.77
2024-02-29T07:56:21.732Z,45.89
2024-02-29T07:57:21.720Z,46.25
2024-02-29T07:58:21.873Z,46.19
2024-02-29T07:59:21.820Z,46.21
2024-02-29T08:00:21.882Z,46.23
2024-02-29T08:01:22.019Z,46.22
2024-02-29T08:02:24.684Z,46.48
2024-02-29T08:03:21.997Z,46.45
2024-02-29T08:04:22.048Z,46.45
2024-02-29T08:05:22.004Z,46.49
2024-02-29T08:06:21.995Z,46.64
2024-02-29T08:07:22.065Z,46.52
2024-02-29T08:08:22.009Z,46.56
2024-02-29T08:09:22.002Z,46.61
2024-02-29T08:10:22.095Z,46.65
2024-02-29T08:11:22.106Z,46.71
2024-02-29T08:12:22.003Z,46.68
2024-02-29T08:13:22.023Z,46.79
2024-02-29T08:14:22.038Z,46.93
2024-02-29T08:15:22.026Z,46.87
2024-02-29T08:16:22.021Z,46.82
2024-02-29T08:17:22.013Z,46.87
2024-02-29T08:18:22.019Z,46.89
2024-02-29T08:19:22.089Z,47.02
2024-02-29T08:20:22.034Z,47.02
2024-02-29T08:21:22.016Z,47.00
2024-02-29T08:22:22.038Z,47.08
2024-02-29T08:23:22.022Z,47.16
2024-02-29T08:24:22.060Z,47.19
2024-02-29T08:25:22.050Z,47.33
2024-02-29T08:26:22.014Z,47.39
2024-02-29T08:27:22.019Z,47.40
2024-02-29T08:28:22.099Z,47.57
2024-02-29T08:29:22.014Z,47.59
2024-02-29T08:30:22.042Z,47.69
2024-02-29T08:31:22.080Z,47.74
2024-02-29T08:32:22.060Z,47.84
2024-02-29T08:33:22.083Z,47.85
2024-02-29T08:34:22.126Z,48.00
2024-02-29T08:35:22.047Z,47.99
2024-02-29T08:36:22.039Z,48.11
2024-02-29T08:37:22.117Z,48.07
2024-02-29T08:38:22.051Z,47.98
2024-02-29T08:39:22.037Z,48.00
2024-02-29T08:40:22.137Z,48.16
2024-02-29T08:41:22.034Z,48.19
2024-02-29T08:42:22.045Z,48.23
2024-02-29T08:43:22.082Z,48.24
2024-02-29T08:44:22.053Z,48.35
2024-02-29T08:45:23.015Z,48.42
2024-02-29T08:46:22.143Z,48.46
2024-02-29T08:47:22.053Z,48.47
2024-02-29T08:48:22.063Z,48.40
2024-02-29T08:49:22.157Z,48.42
2024-02-29T08:50:22.074Z,48.38
2024-02-29T08:51:22.081Z,48.26
2024-02-29T08:52:22.107Z,48.29
2024-02-29T08:53:22.065Z,45.59
2024-02-29T08:54:22.062Z,42.23
2024-02-29T08:55:22.196Z,41.02
2024-02-29T08:56:22.068Z,40.28
2024-02-29T08:57:22.078Z,40.09
2024-02-29T08:58:22.240Z,39.71
2024-02-29T08:59:22.054Z,40.39
2024-02-29T09:00:22.084Z,44.65
2024-02-29T09:01:22.088Z,45.70
2024-02-29T09:02:22.063Z,45.97
2024-02-29T09:03:22.065Z,45.68
2024-02-29T09:04:22.101Z,45.54
2024-02-29T09:05:22.102Z,45.47
2024-02-29T09:06:22.073Z,45.38
2024-02-29T09:07:22.129Z,45.25
2024-02-29T09:08:22.966Z,45.18
2024-02-29T09:09:22.062Z,45.21
2024-02-29T09:10:22.111Z,45.18
2024-02-29T09:11:22.140Z,45.15
2024-02-29T09:12:22.098Z,45.13
2024-02-29T09:14:22.101Z,45.12
2024-02-29T09:15:22.080Z,45.12
2024-02-29T09:16:22.162Z,45.11
2024-02-29T09:17:22.097Z,45.06
2024-02-29T09:18:22.107Z,45.05
2024-02-29T09:19:22.210Z,45.08
2024-02-29T09:20:22.117Z,45.11
2024-02-29T09:21:22.081Z,45.12
2024-02-29T09:22:22.166Z,45.13
2024-02-29T09:23:22.089Z,45.17
2024-02-29T09:24:22.096Z,45.20
2024-02-29T09:25:22.233Z,45.24
2024-02-29T09:26:22.109Z,45.26
2024-02-29T09:27:22.116Z,45.30
2024-02-29T09:28:22.246Z,45.38
2024-02-29T09:29:24.142Z,45.42
2024-02-29T09:30:22.139Z,45.51
2024-02-29T09:31:22.337Z,45.52
2024-02-29T09:32:22.106Z,45.54
2024-02-29T09:33:22.099Z,45.56
2024-02-29T09:34:22.231Z,45.59
2024-02-29T09:35:22.127Z,45.59
2024-02-29T09:36:22.121Z,45.65
2024-02-29T09:37:22.130Z,45.69
2024-02-29T09:38:22.128Z,45.71
2024-02-29T09:39:22.122Z,45.85
2024-02-29T09:40:22.454Z,45.95
2024-02-29T09:41:32.728Z,45.93
2024-02-29T09:42:23.160Z,45.96
2024-02-29T09:43:22.223Z,45.99
2024-02-29T09:44:22.125Z,45.94
2024-02-29T09:45:23.746Z,45.94
2024-02-29T09:46:22.154Z,45.96
2024-02-29T09:47:22.156Z,46.02
2024-02-29T09:48:22.154Z,46.02
2024-02-29T09:49:22.200Z,46.07
2024-02-29T09:50:22.170Z,46.09
2024-02-29T09:51:22.136Z,46.08
2024-02-29T09:52:22.172Z,46.10
2024-02-29T09:53:22.147Z,46.11
2024-02-29T09:54:22.157Z,46.09
2024-02-29T09:55:22.192Z,46.26
2024-02-29T09:56:22.159Z,46.25
2024-02-29T09:57:22.201Z,46.36
2024-02-29T09:58:22.306Z,46.45
2024-02-29T09:59:22.171Z,46.56
2024-02-29T10:00:22.191Z,46.68
2024-02-29T10:01:22.257Z,46.69
2024-02-29T10:02:22.211Z,46.75
2024-02-29T10:03:22.219Z,46.92
2024-02-29T10:04:22.261Z,47.08
2024-02-29T10:05:22.181Z,47.14
2024-02-29T10:06:22.164Z,47.66
2024-02-29T10:07:22.238Z,47.77
2024-02-29T10:08:22.166Z,47.84
2024-02-29T10:09:22.178Z,47.91
2024-02-29T10:10:22.369Z,48.07
2024-02-29T10:11:22.291Z,48.03
2024-02-29T10:12:22.228Z,48.09
2024-02-29T10:13:22.333Z,48.21
2024-02-29T10:14:22.230Z,48.21
2024-02-29T10:15:22.179Z,48.36
2024-02-29T10:16:22.745Z,48.35
2024-02-29T10:17:22.194Z,48.48
2024-02-29T10:18:22.251Z,48.45
2024-02-29T10:19:22.304Z,48.45
2024-02-29T10:20:22.208Z,48.51
2024-02-29T10:21:22.193Z,48.54
2024-02-29T10:22:22.259Z,48.62
2024-02-29T10:23:22.188Z,48.70
2024-02-29T10:24:22.198Z,48.93
2024-02-29T10:25:22.340Z,48.89
2024-02-29T10:26:22.203Z,49.05
2024-02-29T10:27:22.186Z,49.06
2024-02-29T10:28:22.259Z,49.07
2024-02-29T10:29:23.858Z,49.16
2024-02-29T10:30:22.208Z,49.16
2024-02-29T10:31:22.251Z,49.36
2024-02-29T10:32:22.241Z,49.60
2024-02-29T10:33:22.264Z,49.86
2024-02-29T10:34:22.399Z,50.03
2024-02-29T10:35:22.221Z,50.12
2024-02-29T10:36:22.212Z,49.95
2024-02-29T10:37:22.323Z,50.28
2024-02-29T10:38:22.250Z,50.20
2024-02-29T10:39:22.226Z,50.18
2024-02-29T10:40:22.347Z,50.24
2024-02-29T10:41:22.222Z,50.17
2024-02-29T10:42:22.243Z,50.40
2024-02-29T10:43:22.330Z,50.61
2024-02-29T10:44:22.230Z,50.50
2024-02-29T10:45:25.053Z,50.52
2024-02-29T10:46:22.344Z,50.39
2024-02-29T10:47:22.236Z,45.79
2024-02-29T10:48:22.243Z,45.31
2024-02-29T10:49:22.307Z,48.04
2024-02-29T10:50:22.243Z,49.36
2024-02-29T10:51:24.516Z,49.05
2024-02-29T10:52:22.285Z,48.89
2024-02-29T10:53:22.244Z,49.05
2024-02-29T10:54:22.273Z,49.12
2024-02-29T10:55:22.354Z,49.14
2024-02-29T10:56:22.273Z,49.33
2024-02-29T10:57:22.242Z,49.37
2024-02-29T10:58:22.336Z,49.52
2024-02-29T10:59:22.272Z,49.61
2024-02-29T11:00:22.258Z,49.61
2024-02-29T11:01:22.375Z,49.64
2024-02-29T11:02:22.257Z,49.71
2024-02-29T11:03:22.259Z,50.01
2024-02-29T11:04:22.292Z,49.97
2024-02-29T11:05:22.263Z,50.08
2024-02-29T11:06:22.244Z,50.21
2024-02-29T11:07:22.360Z,50.28
2024-02-29T11:08:22.252Z,50.32
2024-02-29T11:09:25.538Z,50.47
2024-02-29T11:10:23.398Z,50.54
2024-02-29T11:11:22.336Z,50.57
2024-02-29T11:12:22.262Z,50.81
2024-02-29T11:13:22.383Z,50.87
2024-02-29T11:14:22.301Z,50.92
2024-02-29T11:15:23.489Z,51.06
2024-02-29T11:16:22.307Z,51.08
2024-02-29T11:17:22.274Z,51.22
2024-02-29T11:18:22.268Z,51.17
2024-02-29T11:19:22.349Z,51.22
2024-02-29T11:20:22.330Z,51.41
2024-02-29T11:21:22.276Z,51.26
2024-02-29T11:22:22.350Z,51.28
2024-02-29T11:23:22.281Z,51.36
2024-02-29T11:24:22.393Z,51.37
2024-02-29T11:25:22.518Z,51.47
2024-02-29T11:26:22.316Z,51.42
2024-02-29T11:27:22.341Z,51.51
2024-02-29T11:28:22.412Z,51.65
2024-02-29T11:29:22.394Z,51.56
2024-02-29T11:30:22.658Z,51.71
2024-02-29T11:31:22.518Z,51.65
2024-02-29T11:32:22.468Z,51.72
2024-02-29T11:33:22.595Z,51.81
2024-02-29T11:34:22.662Z,51.83
2024-02-29T11:35:22.622Z,51.98
2024-02-29T11:36:22.575Z,51.85
2024-02-29T11:37:24.884Z,51.90
2024-02-29T11:38:29.147Z,52.00
2024-02-29T11:39:23.626Z,51.99
2024-02-29T11:40:22.680Z,52.01
2024-02-29T11:41:22.620Z,51.99
2024-02-29T11:42:22.607Z,52.10
2024-02-29T11:43:24.881Z,50.40
2024-02-29T11:44:22.606Z,46.51
2024-02-29T11:45:22.813Z,46.17
2024-02-29T11:46:22.670Z,44.98
2024-02-29T11:47:22.618Z,43.85
2024-02-29T11:48:22.623Z,42.46
2024-02-29T11:49:22.737Z,42.02
2024-02-29T11:50:22.616Z,41.00
2024-02-29T11:51:22.646Z,40.33
2024-02-29T11:52:22.657Z,39.42
2024-02-29T11:53:22.624Z,39.08
2024-02-29T11:54:24.191Z,38.71
2024-02-29T11:55:22.805Z,39.19
2024-02-29T11:56:22.638Z,38.27
2024-02-29T11:57:22.651Z,38.28
2024-02-29T11:58:22.673Z,38.00
2024-02-29T11:59:22.729Z,37.60
2024-02-29T12:00:22.621Z,37.48
2024-02-29T12:01:22.677Z,37.47
2024-02-29T12:02:22.643Z,37.21
2024-02-29T12:03:23.668Z,36.87
2024-02-29T12:04:22.824Z,38.78
2024-02-29T12:05:22.685Z,41.81
2024-02-29T12:06:22.625Z,42.36
2024-02-29T12:07:22.698Z,42.70
2024-02-29T12:08:22.694Z,42.66
2024-02-29T12:09:22.640Z,42.49
2024-02-29T12:10:22.768Z,42.64
2024-02-29T12:11:22.690Z,42.61
2024-02-29T12:12:22.645Z,42.72
2024-02-29T12:13:22.713Z,42.82
2024-02-29T12:14:22.648Z,42.80
2024-02-29T12:15:22.683Z,42.85
2024-02-29T12:16:22.703Z,42.94
2024-02-29T12:17:22.664Z,42.98
2024-02-29T12:18:22.681Z,43.04
2024-02-29T12:19:22.735Z,43.12
2024-02-29T12:20:22.654Z,43.19
2024-02-29T12:21:28.639Z,43.22
2024-02-29T12:22:23.779Z,43.33
2024-02-29T12:23:22.672Z,43.35
2024-02-29T12:24:22.681Z,43.55
2024-02-29T12:25:22.779Z,43.56
2024-02-29T12:26:22.694Z,43.61
2024-02-29T12:27:22.699Z,43.62
2024-02-29T12:28:22.720Z,43.75
2024-02-29T12:29:22.679Z,43.80
2024-02-29T12:30:22.686Z,43.89
2024-02-29T12:31:22.959Z,43.94
2024-02-29T12:32:22.695Z,44.05
2024-02-29T12:33:26.425Z,44.08
2024-02-29T12:34:23.803Z,44.26
2024-02-29T12:35:22.770Z,44.43
2024-02-29T12:36:22.818Z,44.51
2024-02-29T12:37:22.829Z,44.58
2024-02-29T12:38:22.846Z,44.55
2024-02-29T12:39:22.778Z,44.65
2024-02-29T12:40:22.909Z,44.73
2024-02-29T12:41:22.781Z,44.73
2024-02-29T12:42:22.763Z,44.78
2024-02-29T12:43:22.950Z,44.84
2024-02-29T12:44:22.815Z,44.88
2024-02-29T12:45:22.923Z,44.94
2024-02-29T12:46:23.097Z,44.98
2024-02-29T12:47:23.034Z,44.98
2024-02-29T12:48:23.097Z,45.02
2024-02-29T12:49:23.225Z,45.08
2024-02-29T12:50:23.245Z,45.13
2024-02-29T12:51:23.347Z,45.13
2024-02-29T12:52:23.395Z,45.16
2024-02-29T12:53:23.456Z,45.22
2024-02-29T12:54:23.766Z,45.23